Time;durP1;ratioP1;P1;durP2;ratioP2;P2;SDS_P1;SDS_P2;PMS_P1;PMS_P2;Temp;Humidity;BMP_temperature;BMP_pressure;BME280_temperature;BME280_humidity;BME280_pressure;Samples;Min_cycle;Max_cycle;Signal;HPM_P1;HPM_P2
2023/06/10 00:02:25;;;;;;;6.82;6.13;;;;;;;;;;5014424;28;20054;-81
2023/06/10 00:04:52;;;;;;;7.25;5.90;;;;;;;;;;5015660;28;20050;-77
2023/06/10 00:07:19;;;;;;;8.07;6.70;;;;;;;;;;5016809;28;20136;-79
2023/06/10 00:09:46;;;;;;;7.90;6.75;;;;;;;;;;5012896;28;20408;-78
2023/06/10 00:12:12;;;;;;;8.18;7.05;;;;;;;;;;5013643;28;20057;-79
2023/06/10 00:14:41;;;;;;;8.43;7.28;;;;;;;;;;5020172;28;20201;-81
2023/06/10 00:17:09;;;;;;;8.40;6.65;;;;;;;;;;5025545;28;20056;-81
2023/06/10 00:19:41;;;;;;;9.50;7.88;;;;;;;;;;5023995;28;20062;-78
2023/06/10 00:22:08;;;;;;;7.80;7.00;;;;;;;;;;5022860;28;20125;-78
2023/06/10 00:24:35;;;;;;;8.10;6.82;;;;;;;;;;5021276;28;20050;-78
2023/06/10 00:27:04;;;;;;;8.80;7.32;;;;;;;;;;5018820;28;20041;-78
2023/06/10 00:29:30;;;;;;;8.35;7.15;;;;;;;;;;5029456;28;20054;-79
2023/06/10 00:31:58;;;;;;;10.90;8.18;;;;;;;;;;5035145;28;20046;-79
2023/06/10 00:34:24;;;;;;;8.05;7.03;;;;;;;;;;5019547;28;20053;-80
2023/06/10 00:36:52;;;;;;;8.80;7.88;;;;;;;;;;5017383;28;20100;-79
2023/06/10 00:39:19;;;;;;;8.77;7.47;;;;;;;;;;5017478;28;20137;-78
2023/06/10 00:41:46;;;;;;;8.15;7.35;;;;;;;;;;5016878;28;20072;-78
2023/06/10 00:44:12;;;;;;;8.50;7.25;;;;;;;;;;5015963;28;20133;-77
2023/06/10 00:46:39;;;;;;;9.10;7.93;;;;;;;;;;5015452;28;20497;-78
2023/06/10 00:49:06;;;;;;;8.27;7.25;;;;;;;;;;5015796;28;20049;-80
2023/06/10 00:51:33;;;;;;;8.02;7.18;;;;;;;;;;5017000;28;20089;-78
2023/06/10 00:54:01;;;;;;;8.77;7.63;;;;;;;;;;5028310;28;20144;-79
2023/06/10 00:56:28;;;;;;;9.25;7.63;;;;;;;;;;5015977;28;20069;-81
2023/06/10 00:58:55;;;;;;;8.98;7.75;;;;;;;;;;5016479;28;20056;-80
2023/06/10 01:01:22;;;;;;;9.10;7.05;;;;;;;;;;5017957;28;20133;-80
2023/06/10 01:03:48;;;;;;;8.75;7.75;;;;;;;;;;5018572;28;20046;-78
2023/06/10 01:06:23;;;;;;;9.00;7.88;;;;;;;;;;5020385;28;20136;-80
2023/06/10 01:08:57;;;;;;;9.18;7.38;;;;;;;;;;5020180;28;20049;-79
2023/06/10 01:11:30;;;;;;;9.23;7.93;;;;;;;;;;5021026;28;20049;-80
2023/06/10 01:13:59;;;;;;;8.93;7.38;;;;;;;;;;5019579;28;20535;-80
2023/06/10 01:16:26;;;;;;;8.27;7.18;;;;;;;;;;5016331;28;20571;-78
2023/06/10 01:18:54;;;;;;;7.97;6.93;;;;;;;;;;5017720;28;20096;-78
2023/06/10 01:24:44;;;;;;;8.90;7.35;;;;;;;;;;5015068;28;20048;-79
2023/06/10 01:27:21;;;;;;;8.85;7.95;;;;;;;;;;5015756;28;20050;-79
2023/06/10 01:29:55;;;;;;;9.13;7.40;;;;;;;;;;5017078;28;20046;-79
2023/06/10 01:32:28;;;;;;;8.98;7.43;;;;;;;;;;5017312;28;20053;-78
2023/06/10 01:34:56;;;;;;;8.20;7.10;;;;;;;;;;5017158;28;20058;-77
2023/06/10 01:37:25;;;;;;;8.27;7.35;;;;;;;;;;5017120;28;20104;-77
2023/06/10 01:39:58;;;;;;;8.80;7.30;;;;;;;;;;5018772;28;20053;-79
2023/06/10 01:42:29;;;;;;;8.80;7.22;;;;;;;;;;5019325;28;20550;-78
2023/06/10 01:44:55;;;;;;;9.27;7.88;;;;;;;;;;5019345;28;20086;-79
2023/06/10 01:47:22;;;;;;;9.30;8.15;;;;;;;;;;5018958;28;20073;-79
2023/06/10 01:49:49;;;;;;;11.05;7.53;;;;;;;;;;5018963;28;20398;-78
2023/06/10 01:52:15;;;;;;;9.23;8.23;;;;;;;;;;5019172;28;20046;-79
2023/06/10 01:54:42;;;;;;;8.40;7.50;;;;;;;;;;5018745;28;20397;-78
2023/06/10 01:57:11;;;;;;;9.40;7.90;;;;;;;;;;5017768;28;20572;-78
2023/06/10 01:59:38;;;;;;;9.05;8.00;;;;;;;;;;5018228;28;20042;-78
2023/06/10 02:02:05;;;;;;;9.43;7.97;;;;;;;;;;5017997;28;20045;-78
2023/06/10 02:04:31;;;;;;;8.95;7.90;;;;;;;;;;5018172;28;20064;-78
2023/06/10 02:06:58;;;;;;;11.52;8.23;;;;;;;;;;5018211;28;20073;-78
2023/06/10 02:09:26;;;;;;;10.00;7.85;;;;;;;;;;5017719;28;20581;-78
2023/06/10 02:11:52;;;;;;;9.40;8.05;;;;;;;;;;5017357;28;20046;-79
2023/06/10 02:14:20;;;;;;;8.43;7.00;;;;;;;;;;5018194;28;20046;-78
2023/06/10 02:16:47;;;;;;;8.90;7.25;;;;;;;;;;5017665;28;20046;-79
2023/06/10 02:19:14;;;;;;;8.75;7.72;;;;;;;;;;5017744;28;20061;-78
2023/06/10 02:21:40;;;;;;;9.82;8.23;;;;;;;;;;5017592;28;20113;-78
2023/06/10 02:24:08;;;;;;;9.98;7.80;;;;;;;;;;5017236;28;20122;-78
2023/06/10 02:26:35;;;;;;;10.18;8.10;;;;;;;;;;5017710;28;20041;-78
2023/06/10 02:29:01;;;;;;;10.05;8.07;;;;;;;;;;5017532;28;20053;-78
2023/06/10 02:31:29;;;;;;;10.02;7.63;;;;;;;;;;5017286;28;20054;-78
2023/06/10 02:33:56;;;;;;;9.90;7.28;;;;;;;;;;5017257;28;20150;-79
2023/06/10 02:36:23;;;;;;;9.38;7.80;;;;;;;;;;5017202;28;20061;-79
2023/06/10 02:38:50;;;;;;;10.52;8.75;;;;;;;;;;5017488;28;20084;-78
2023/06/10 02:41:17;;;;;;;10.38;8.30;;;;;;;;;;5016960;28;20056;-78
2023/06/10 02:43:43;;;;;;;9.30;7.72;;;;;;;;;;5016866;28;20050;-78
2023/06/10 02:46:10;;;;;;;8.98;7.50;;;;;;;;;;5016707;28;20042;-79
2023/06/10 02:48:43;;;;;;;9.93;7.88;;;;;;;;;;5017182;28;20041;-79
2023/06/10 02:51:10;;;;;;;10.15;7.95;;;;;;;;;;5017299;28;20512;-78
2023/06/10 02:53:37;;;;;;;11.00;8.05;;;;;;;;;;5003691;28;20053;-79
2023/06/10 02:56:04;;;;;;;10.40;8.23;;;;;;;;;;5000570;28;20052;-78
2023/06/10 02:58:30;;;;;;;8.80;7.75;;;;;;;;;;4996710;28;20081;-78
2023/06/10 03:00:58;;;;;;;8.90;7.68;;;;;;;;;;4996509;28;20135;-78
2023/06/10 03:03:25;;;;;;;11.07;8.25;;;;;;;;;;4996480;28;20051;-78
2023/06/10 03:05:53;;;;;;;10.00;8.52;;;;;;;;;;4996557;28;20042;-78
2023/06/10 03:08:20;;;;;;;9.70;7.88;;;;;;;;;;4996388;28;20046;-78
2023/06/10 03:10:46;;;;;;;10.60;7.78;;;;;;;;;;4996837;28;20074;-78
2023/06/10 03:13:14;;;;;;;10.80;8.00;;;;;;;;;;4999056;28;20074;-78
2023/06/10 03:15:41;;;;;;;11.13;8.25;;;;;;;;;;4997505;28;20129;-78
2023/06/10 03:18:08;;;;;;;9.90;8.35;;;;;;;;;;4997831;28;20054;-78
2023/06/10 03:20:37;;;;;;;11.15;9.07;;;;;;;;;;4997689;28;20134;-78
2023/06/10 03:23:07;;;;;;;11.32;9.68;;;;;;;;;;4997921;28;20073;-78
2023/06/10 03:25:33;;;;;;;11.70;9.75;;;;;;;;;;4997995;28;20054;-78
2023/06/10 03:28:00;;;;;;;11.10;8.82;;;;;;;;;;5010385;28;20050;-79
2023/06/10 03:30:28;;;;;;;10.77;8.70;;;;;;;;;;5009969;28;20042;-79
2023/06/10 03:32:54;;;;;;;8.70;7.80;;;;;;;;;;5002060;28;20054;-79
2023/06/10 03:35:22;;;;;;;11.90;9.07;;;;;;;;;;5001063;28;20054;-79
2023/06/10 03:37:49;;;;;;;11.55;9.18;;;;;;;;;;5001139;28;20078;-79
2023/06/10 03:40:17;;;;;;;11.05;9.65;;;;;;;;;;5004671;28;20053;-79
2023/06/10 03:42:43;;;;;;;10.32;8.68;;;;;;;;;;5014644;28;20110;-78
2023/06/10 03:45:11;;;;;;;10.93;8.68;;;;;;;;;;5001567;28;20053;-78
2023/06/10 03:47:40;;;;;;;11.13;9.57;;;;;;;;;;5000083;28;20047;-78
2023/06/10 03:50:07;;;;;;;12.68;10.18;;;;;;;;;;5001890;28;20046;-78
2023/06/10 03:52:34;;;;;;;10.75;8.52;;;;;;;;;;5001970;28;20046;-78
2023/06/10 03:55:01;;;;;;;12.05;9.75;;;;;;;;;;5001585;28;20150;-78
2023/06/10 03:57:29;;;;;;;10.88;9.30;;;;;;;;;;5002362;28;20073;-78
2023/06/10 03:59:56;;;;;;;11.13;8.90;;;;;;;;;;5003813;28;20047;-79
2023/06/10 04:02:23;;;;;;;11.02;9.02;;;;;;;;;;5006362;28;20051;-79
2023/06/10 04:04:50;;;;;;;11.07;8.80;;;;;;;;;;5024339;28;20045;-79
2023/06/10 04:07:18;;;;;;;10.73;8.95;;;;;;;;;;5024205;28;20104;-79
2023/06/10 04:09:46;;;;;;;14.05;8.93;;;;;;;;;;5023022;28;20046;-79
2023/06/10 04:12:14;;;;;;;11.20;9.20;;;;;;;;;;5025168;28;20050;-79
2023/06/10 04:14:42;;;;;;;10.57;8.82;;;;;;;;;;5022890;28;20053;-79
2023/06/10 04:17:09;;;;;;;11.75;9.10;;;;;;;;;;5022247;28;20104;-79
2023/06/10 04:19:36;;;;;;;12.85;9.68;;;;;;;;;;5020159;28;20050;-79
2023/06/10 04:22:03;;;;;;;9.90;8.45;;;;;;;;;;5017823;28;20079;-79
2023/06/10 04:24:30;;;;;;;10.80;8.93;;;;;;;;;;5017360;28;20138;-78
2023/06/10 04:26:57;;;;;;;12.45;9.38;;;;;;;;;;5017337;28;20053;-79
2023/06/10 04:29:23;;;;;;;12.50;10.18;;;;;;;;;;5017717;28;20046;-79
2023/06/10 04:31:52;;;;;;;13.15;9.07;;;;;;;;;;5017609;28;20107;-79
2023/06/10 04:34:18;;;;;;;11.40;9.27;;;;;;;;;;5017903;28;20046;-79
2023/06/10 04:36:45;;;;;;;11.52;8.68;;;;;;;;;;5017752;28;20081;-79
2023/06/10 04:39:12;;;;;;;10.65;8.20;;;;;;;;;;5017568;28;20108;-79
2023/06/10 04:41:38;;;;;;;11.48;9.27;;;;;;;;;;5017609;28;20413;-79
2023/06/10 04:44:05;;;;;;;11.68;9.52;;;;;;;;;;5017487;28;20109;-79
2023/06/10 04:46:32;;;;;;;10.60;8.70;;;;;;;;;;5016895;28;20112;-79
2023/06/10 04:49:00;;;;;;;10.52;8.90;;;;;;;;;;5015860;28;20084;-79
2023/06/10 04:51:26;;;;;;;13.15;9.18;;;;;;;;;;5020406;28;20056;-79
2023/06/10 04:53:53;;;;;;;10.55;8.57;;;;;;;;;;5025150;28;20042;-78
2023/06/10 04:56:20;;;;;;;12.07;9.27;;;;;;;;;;5024337;28;20133;-79
2023/06/10 04:58:47;;;;;;;12.20;8.75;;;;;;;;;;5017139;28;20077;-79
2023/06/10 05:01:13;;;;;;;11.73;9.05;;;;;;;;;;5015723;28;20467;-79
2023/06/10 05:03:40;;;;;;;12.20;9.13;;;;;;;;;;5016434;28;20412;-78
2023/06/10 05:06:08;;;;;;;11.35;8.75;;;;;;;;;;5025007;28;20044;-79
2023/06/10 05:08:35;;;;;;;11.88;9.18;;;;;;;;;;5027958;28;20054;-78
2023/06/10 05:11:01;;;;;;;11.90;8.48;;;;;;;;;;5019541;28;20056;-78
2023/06/10 05:13:28;;;;;;;13.23;9.13;;;;;;;;;;5019787;28;20049;-78
2023/06/10 05:15:55;;;;;;;11.80;9.48;;;;;;;;;;5019747;28;20543;-78
2023/06/10 05:18:21;;;;;;;13.43;9.85;;;;;;;;;;5018254;28;20042;-78
2023/06/10 05:20:49;;;;;;;12.52;9.98;;;;;;;;;;5016651;28;20417;-79
2023/06/10 05:23:17;;;;;;;11.40;9.18;;;;;;;;;;5017908;28;20054;-79
2023/06/10 05:25:43;;;;;;;10.57;9.18;;;;;;;;;;5016398;28;20092;-78
2023/06/10 05:28:11;;;;;;;13.98;9.82;;;;;;;;;;5019274;28;20046;-78
2023/06/10 05:30:37;;;;;;;12.25;9.63;;;;;;;;;;5015883;28;20050;-78
2023/06/10 05:33:04;;;;;;;12.13;9.98;;;;;;;;;;5015476;28;20048;-78
2023/06/10 05:35:31;;;;;;;12.90;9.55;;;;;;;;;;5015580;28;20420;-78
2023/06/10 05:37:58;;;;;;;13.43;9.95;;;;;;;;;;5015312;28;20081;-78
2023/06/10 05:40:25;;;;;;;12.85;10.07;;;;;;;;;;5015568;28;20084;-79
2023/06/10 05:42:52;;;;;;;15.68;10.88;;;;;;;;;;5015557;28;20509;-78
2023/06/10 05:45:19;;;;;;;13.13;10.73;;;;;;;;;;5015887;28;20132;-78
2023/06/10 05:47:45;;;;;;;12.70;9.43;;;;;;;;;;5015197;28;20125;-77
2023/06/10 05:50:12;;;;;;;12.13;9.70;;;;;;;;;;5015044;28;20408;-78
2023/06/10 05:52:40;;;;;;;12.35;9.40;;;;;;;;;;5015304;28;20129;-78
2023/06/10 05:55:07;;;;;;;12.15;8.95;;;;;;;;;;5016010;28;20049;-78
2023/06/10 05:57:35;;;;;;;12.65;10.15;;;;;;;;;;5016541;28;20105;-79
2023/06/10 06:00:02;;;;;;;12.02;9.25;;;;;;;;;;5016419;28;20090;-79
2023/06/10 06:02:28;;;;;;;12.32;9.05;;;;;;;;;;5016276;28;20045;-79
2023/06/10 06:04:55;;;;;;;11.27;8.55;;;;;;;;;;5015957;28;20088;-79
2023/06/10 06:07:22;;;;;;;11.07;9.10;;;;;;;;;;5016369;28;20111;-79
2023/06/10 06:09:48;;;;;;;13.60;9.05;;;;;;;;;;5016658;28;20077;-79
2023/06/10 06:12:15;;;;;;;12.57;9.25;;;;;;;;;;5015835;28;20504;-79
2023/06/10 06:14:44;;;;;;;14.98;11.65;;;;;;;;;;5016235;28;20507;-80
2023/06/10 06:17:11;;;;;;;16.85;12.52;;;;;;;;;;5015633;28;20100;-79
2023/06/10 06:19:38;;;;;;;18.58;15.18;;;;;;;;;;5016029;28;20050;-78
2023/06/10 06:22:05;;;;;;;16.48;13.60;;;;;;;;;;5016067;28;20077;-79
2023/06/10 06:24:32;;;;;;;16.70;13.93;;;;;;;;;;5017131;28;20153;-79
2023/06/10 06:26:58;;;;;;;17.45;12.73;;;;;;;;;;5023729;28;20041;-79
2023/06/10 06:29:25;;;;;;;13.77;10.98;;;;;;;;;;5024828;28;20046;-79
2023/06/10 06:31:53;;;;;;;12.18;9.73;;;;;;;;;;5018488;28;20107;-79
2023/06/10 06:34:20;;;;;;;10.05;8.60;;;;;;;;;;5017235;28;20069;-79
2023/06/10 06:36:46;;;;;;;9.80;8.45;;;;;;;;;;5016600;28;20046;-77
2023/06/10 06:39:13;;;;;;;11.23;8.93;;;;;;;;;;5014274;28;20092;-78
2023/06/10 06:41:40;;;;;;;10.27;8.38;;;;;;;;;;5013835;28;20064;-78
2023/06/10 06:44:06;;;;;;;10.40;7.80;;;;;;;;;;5012970;28;20133;-77
2023/06/10 06:46:33;;;;;;;10.70;8.05;;;;;;;;;;5012875;28;20045;-77
2023/06/10 06:49:01;;;;;;;10.75;8.27;;;;;;;;;;5012873;28;20048;-77
2023/06/10 06:51:28;;;;;;;10.25;8.25;;;;;;;;;;5012937;28;20087;-76
2023/06/10 06:53:58;;;;;;;10.27;7.80;;;;;;;;;;5012400;28;20545;-77
2023/06/10 06:56:24;;;;;;;10.23;7.72;;;;;;;;;;5012460;28;20054;-77
2023/06/10 06:58:51;;;;;;;9.90;7.38;;;;;;;;;;5015521;28;20056;-78
2023/06/10 07:01:17;;;;;;;10.82;7.70;;;;;;;;;;5012864;28;20084;-79
2023/06/10 07:03:44;;;;;;;10.30;7.57;;;;;;;;;;5012669;28;20128;-78
2023/06/10 07:06:13;;;;;;;12.98;8.95;;;;;;;;;;5012890;28;20172;-78
2023/06/10 07:08:40;;;;;;;9.70;7.50;;;;;;;;;;5012645;28;20509;-77
2023/06/10 07:11:06;;;;;;;8.90;7.18;;;;;;;;;;5013557;28;20073;-77
2023/06/10 07:13:33;;;;;;;10.73;8.00;;;;;;;;;;5012919;28;20106;-78
2023/06/10 07:16:00;;;;;;;9.85;7.60;;;;;;;;;;5013104;28;20489;-78
2023/06/10 07:18:26;;;;;;;9.15;7.00;;;;;;;;;;5012109;28;20128;-77
2023/06/10 07:20:53;;;;;;;10.25;7.18;;;;;;;;;;5012003;28;20050;-77
2023/06/10 07:23:21;;;;;;;9.13;7.15;;;;;;;;;;5012804;28;20136;-78
2023/06/10 07:25:48;;;;;;;9.55;7.32;;;;;;;;;;5015679;28;20132;-78
2023/06/10 07:28:14;;;;;;;8.60;6.70;;;;;;;;;;5015572;28;20109;-77
2023/06/10 07:30:41;;;;;;;8.40;6.78;;;;;;;;;;5015976;28;20046;-78
2023/06/10 07:33:07;;;;;;;8.27;6.60;;;;;;;;;;5017087;28;20049;-77
2023/06/10 07:35:34;;;;;;;7.72;6.57;;;;;;;;;;5017474;28;20046;-77
2023/06/10 07:38:01;;;;;;;7.97;5.95;;;;;;;;;;5018307;28;20144;-77
2023/06/10 07:40:29;;;;;;;6.70;5.13;;;;;;;;;;5020217;28;20052;-77
2023/06/10 07:42:56;;;;;;;8.80;6.10;;;;;;;;;;5021023;28;20132;-79
2023/06/10 07:45:23;;;;;;;7.78;6.18;;;;;;;;;;5021131;28;20046;-77
2023/06/10 07:47:50;;;;;;;8.77;6.50;;;;;;;;;;5022229;28;20053;-77
2023/06/10 07:50:16;;;;;;;7.65;6.20;;;;;;;;;;5021693;28;20056;-77
2023/06/10 07:52:43;;;;;;;7.97;6.00;;;;;;;;;;5019812;28;20048;-78
2023/06/10 07:55:10;;;;;;;7.40;5.80;;;;;;;;;;5021590;28;20052;-77
2023/06/10 07:57:38;;;;;;;8.25;6.15;;;;;;;;;;5021821;28;20050;-77
2023/06/10 08:00:06;;;;;;;7.45;5.68;;;;;;;;;;5019721;28;20042;-77
2023/06/10 08:02:33;;;;;;;7.70;5.25;;;;;;;;;;5020812;28;20521;-77
2023/06/10 08:05:00;;;;;;;7.18;5.40;;;;;;;;;;5018795;28;20060;-78
2023/06/10 08:07:27;;;;;;;7.30;5.32;;;;;;;;;;5015433;28;20129;-77
2023/06/10 08:09:54;;;;;;;7.72;5.82;;;;;;;;;;5015609;28;20066;-77
2023/06/10 08:12:21;;;;;;;8.15;6.28;;;;;;;;;;5018238;28;20070;-78
2023/06/10 08:14:49;;;;;;;8.80;6.45;;;;;;;;;;5018903;28;20072;-78
2023/06/10 08:17:15;;;;;;;8.57;6.28;;;;;;;;;;4979621;28;1089988;-79
2023/06/10 08:19:42;;;;;;;8.27;6.43;;;;;;;;;;5017332;28;20084;-80
2023/06/10 08:22:09;;;;;;;7.68;5.85;;;;;;;;;;5020021;28;20088;-81
2023/06/10 08:24:36;;;;;;;7.60;5.80;;;;;;;;;;5025063;28;20050;-80
2023/06/10 08:27:03;;;;;;;7.05;5.53;;;;;;;;;;5021818;28;20081;-81
2023/06/10 08:29:31;;;;;;;7.72;5.80;;;;;;;;;;5025343;28;20053;-79
2023/06/10 08:31:59;;;;;;;8.98;6.40;;;;;;;;;;5023162;28;20049;-78
2023/06/10 08:34:26;;;;;;;8.15;6.57;;;;;;;;;;5022249;28;20105;-78
2023/06/10 08:36:55;;;;;;;6.65;4.75;;;;;;;;;;5023509;28;20073;-78
2023/06/10 08:39:25;;;;;;;6.45;5.05;;;;;;;;;;5023006;28;20104;-78
2023/06/10 08:42:01;;;;;;;5.82;4.75;;;;;;;;;;5022604;28;20056;-78
2023/06/10 08:44:29;;;;;;;6.80;4.32;;;;;;;;;;5020853;28;20046;-79
2023/06/10 08:46:59;;;;;;;7.70;5.85;;;;;;;;;;5022068;28;20084;-80
2023/06/10 08:49:31;;;;;;;8.20;6.65;;;;;;;;;;5020563;28;20058;-81
2023/06/10 08:52:00;;;;;;;7.32;5.55;;;;;;;;;;5016049;28;20382;-78
2023/06/10 08:54:31;;;;;;;7.57;6.15;;;;;;;;;;5015168;28;20566;-78
2023/06/10 08:57:00;;;;;;;9.00;6.70;;;;;;;;;;5015587;28;20133;-77
2023/06/10 08:59:27;;;;;;;9.23;7.18;;;;;;;;;;5014268;28;20074;-77
2023/06/10 09:01:55;;;;;;;9.43;6.22;;;;;;;;;;5015345;28;20089;-78
2023/06/10 09:04:22;;;;;;;7.80;5.85;;;;;;;;;;5015789;28;20050;-77
2023/06/10 09:06:50;;;;;;;7.75;6.45;;;;;;;;;;5016094;28;20056;-79
2023/06/10 09:09:17;;;;;;;9.02;6.97;;;;;;;;;;5015703;28;20074;-79
2023/06/10 09:11:44;;;;;;;8.82;7.13;;;;;;;;;;5016232;28;20509;-78
2023/06/10 09:14:11;;;;;;;8.88;7.18;;;;;;;;;;5019636;28;20049;-80
2023/06/10 09:16:39;;;;;;;8.75;6.63;;;;;;;;;;5019007;28;20133;-78
2023/06/10 09:19:07;;;;;;;7.60;6.10;;;;;;;;;;5016685;28;20050;-79
2023/06/10 09:21:35;;;;;;;7.75;6.18;;;;;;;;;;5021033;28;20089;-78
2023/06/10 09:24:04;;;;;;;7.90;5.75;;;;;;;;;;5036324;28;20038;-79
2023/06/10 09:26:31;;;;;;;8.23;6.70;;;;;;;;;;5026957;28;20081;-80
2023/06/10 09:29:03;;;;;;;8.60;6.45;;;;;;;;;;5019287;28;20050;-78
2023/06/10 09:31:30;;;;;;;6.63;5.70;;;;;;;;;;5020362;28;20084;-82
2023/06/10 09:34:06;;;;;;;8.23;6.22;;;;;;;;;;5023506;28;20049;-79
2023/06/10 09:36:37;;;;;;;8.18;6.25;;;;;;;;;;5021924;28;20042;-79
2023/06/10 09:39:05;;;;;;;6.53;5.05;;;;;;;;;;5018920;28;20108;-78
2023/06/10 09:41:34;;;;;;;6.05;5.10;;;;;;;;;;5019728;28;20049;-78
2023/06/10 09:44:10;;;;;;;7.43;5.32;;;;;;;;;;5020971;28;20497;-80
2023/06/10 09:46:36;;;;;;;7.60;5.68;;;;;;;;;;5019331;28;20493;-78
2023/06/10 09:49:03;;;;;;;6.85;5.45;;;;;;;;;;5019889;28;20064;-78
2023/06/10 09:51:30;;;;;;;7.95;6.10;;;;;;;;;;5019168;28;20045;-77
2023/06/10 09:53:56;;;;;;;6.80;5.63;;;;;;;;;;5020779;28;20042;-77
2023/06/10 09:56:34;;;;;;;6.28;5.25;;;;;;;;;;5021190;28;20049;-78
2023/06/10 09:59:00;;;;;;;11.52;6.30;;;;;;;;;;5020668;28;20049;-78
2023/06/10 10:01:27;;;;;;;6.82;5.45;;;;;;;;;;5020314;28;20077;-78
2023/06/10 10:03:54;;;;;;;7.25;4.75;;;;;;;;;;5019718;28;20081;-77
2023/06/10 10:06:21;;;;;;;6.35;5.00;;;;;;;;;;5018794;28;20049;-78
2023/06/10 10:08:49;;;;;;;6.93;5.43;;;;;;;;;;5016813;28;20050;-77
2023/06/10 10:11:18;;;;;;;6.82;4.68;;;;;;;;;;5014787;28;20348;-78
2023/06/10 10:13:48;;;;;;;6.65;4.95;;;;;;;;;;5014132;28;20046;-79
2023/06/10 10:16:17;;;;;;;8.60;6.20;;;;;;;;;;5013458;28;20141;-78
2023/06/10 10:18:48;;;;;;;7.15;5.82;;;;;;;;;;5014302;28;20081;-78
2023/06/10 10:21:17;;;;;;;6.22;5.10;;;;;;;;;;5015069;28;20500;-78
2023/06/10 10:23:53;;;;;;;6.87;5.70;;;;;;;;;;5014865;28;20046;-78
2023/06/10 10:26:22;;;;;;;7.35;6.10;;;;;;;;;;5013928;28;20828;-78
2023/06/10 10:28:58;;;;;;;6.95;5.15;;;;;;;;;;5013322;28;20041;-77
2023/06/10 10:31:26;;;;;;;6.97;4.90;;;;;;;;;;5014392;28;20046;-77
2023/06/10 10:33:57;;;;;;;6.68;5.28;;;;;;;;;;5013736;28;20046;-77
2023/06/10 10:36:24;;;;;;;5.72;4.88;;;;;;;;;;5015150;28;20052;-77
2023/06/10 10:38:51;;;;;;;6.65;5.03;;;;;;;;;;5030957;28;20053;-79
2023/06/10 10:41:20;;;;;;;6.20;4.95;;;;;;;;;;5017789;28;20050;-76
2023/06/10 10:43:48;;;;;;;6.25;4.68;;;;;;;;;;5015289;28;20129;-77
2023/06/10 10:46:18;;;;;;;6.47;5.00;;;;;;;;;;5016125;28;20071;-78
2023/06/10 10:48:45;;;;;;;6.65;4.93;;;;;;;;;;5016126;28;20046;-78
2023/06/10 10:51:12;;;;;;;6.85;4.90;;;;;;;;;;5016289;28;20042;-77
2023/06/10 10:53:39;;;;;;;5.93;4.50;;;;;;;;;;5021905;28;20061;-78
2023/06/10 10:56:07;;;;;;;6.47;4.78;;;;;;;;;;5022853;28;20102;-79
2023/06/10 10:58:34;;;;;;;6.57;5.75;;;;;;;;;;5014128;28;20046;-80
2023/06/10 11:01:10;;;;;;;6.35;5.43;;;;;;;;;;5013353;28;20487;-78
2023/06/10 11:03:43;;;;;;;6.20;5.07;;;;;;;;;;5013116;28;20500;-81
2023/06/10 11:06:14;;;;;;;7.45;5.10;;;;;;;;;;5013403;28;20082;-80
2023/06/10 11:08:48;;;;;;;6.78;5.03;;;;;;;;;;5014119;28;20056;-78
2023/06/10 11:11:24;;;;;;;6.30;4.85;;;;;;;;;;5014658;28;20053;-80
2023/06/10 11:14:06;;;;;;;6.30;4.40;;;;;;;;;;5013904;28;20049;-81
2023/06/10 11:16:40;;;;;;;7.55;4.97;;;;;;;;;;5016478;28;20078;-81
2023/06/10 11:19:08;;;;;;;7.72;4.70;;;;;;;;;;5015097;28;20057;-78
2023/06/10 11:21:59;;;;;;;6.07;4.93;;;;;;;;;;5013177;28;20046;-77
2023/06/10 11:24:26;;;;;;;7.53;5.47;;;;;;;;;;5012880;28;20495;-77
2023/06/10 11:26:53;;;;;;;7.63;6.20;;;;;;;;;;5013324;28;20046;-77
2023/06/10 11:29:20;;;;;;;7.60;5.68;;;;;;;;;;5012345;28;20049;-79
2023/06/10 11:31:51;;;;;;;6.25;5.07;;;;;;;;;;5015922;28;20112;-78
2023/06/10 11:34:24;;;;;;;6.75;5.20;;;;;;;;;;5015900;28;20572;-78
2023/06/10 11:36:52;;;;;;;6.43;4.90;;;;;;;;;;5016268;28;20074;-79
2023/06/10 11:39:26;;;;;;;7.53;4.90;;;;;;;;;;5017226;28;20054;-78
2023/06/10 11:41:53;;;;;;;6.28;5.00;;;;;;;;;;5016592;28;20125;-80
2023/06/10 11:44:21;;;;;;;5.50;4.15;;;;;;;;;;5017702;28;20145;-78
2023/06/10 11:46:51;;;;;;;5.75;4.40;;;;;;;;;;5016494;28;20049;-78
2023/06/10 11:49:18;;;;;;;7.40;4.90;;;;;;;;;;5017517;28;20050;-79
2023/06/10 11:51:51;;;;;;;5.78;4.72;;;;;;;;;;5016567;28;20414;-80
2023/06/10 11:54:18;;;;;;;7.00;5.15;;;;;;;;;;5016406;28;20076;-79
2023/06/10 11:56:45;;;;;;;7.18;5.07;;;;;;;;;;5015080;28;20053;-77
2023/06/10 11:59:12;;;;;;;8.07;5.45;;;;;;;;;;5015826;28;20053;-80
2023/06/10 12:01:42;;;;;;;13.15;6.05;;;;;;;;;;5017115;28;20080;-80
2023/06/10 12:04:10;;;;;;;6.53;5.30;;;;;;;;;;5018084;28;20068;-80
2023/06/10 12:06:41;;;;;;;6.20;4.75;;;;;;;;;;5016761;28;20481;-78
2023/06/10 12:09:14;;;;;;;7.25;5.38;;;;;;;;;;5017492;28;20056;-78
2023/06/10 12:11:41;;;;;;;6.78;4.72;;;;;;;;;;5019127;28;20052;-79
2023/06/10 12:14:07;;;;;;;6.13;4.60;;;;;;;;;;5020736;28;20060;-79
2023/06/10 12:16:34;;;;;;;6.63;5.05;;;;;;;;;;5020063;28;20081;-78
2023/06/10 12:19:05;;;;;;;6.05;4.80;;;;;;;;;;5026014;28;20049;-78
2023/06/10 12:21:33;;;;;;;6.65;4.10;;;;;;;;;;5035505;28;20045;-78
2023/06/10 12:24:04;;;;;;;6.20;4.32;;;;;;;;;;5020083;28;20710;-78
2023/06/10 12:26:42;;;;;;;5.80;4.35;;;;;;;;;;5020332;28;20054;-78
2023/06/10 12:29:20;;;;;;;5.20;4.20;;;;;;;;;;5022200;28;20077;-77
2023/06/10 12:31:58;;;;;;;5.30;4.15;;;;;;;;;;5017631;28;20144;-78
2023/06/10 12:34:36;;;;;;;5.45;4.38;;;;;;;;;;5017336;28;20579;-78
2023/06/10 12:37:04;;;;;;;5.30;3.85;;;;;;;;;;5018992;28;20128;-79
2023/06/10 12:39:32;;;;;;;5.20;3.67;;;;;;;;;;5019116;28;20050;-79
2023/06/10 12:42:00;;;;;;;6.47;4.43;;;;;;;;;;5017673;28;20061;-79
2023/06/10 12:44:34;;;;;;;5.50;4.50;;;;;;;;;;5017525;28;20129;-78
2023/06/10 12:47:01;;;;;;;5.35;3.78;;;;;;;;;;5017269;28;20088;-79
2023/06/10 12:49:28;;;;;;;5.20;4.00;;;;;;;;;;5018805;28;20062;-79
2023/06/10 12:51:55;;;;;;;5.30;3.80;;;;;;;;;;5014964;28;20056;-78
2023/06/10 12:54:21;;;;;;;6.03;3.75;;;;;;;;;;5019188;28;20105;-80
2023/06/10 12:56:48;;;;;;;5.30;3.85;;;;;;;;;;5016698;28;20125;-78
2023/06/10 12:59:16;;;;;;;7.90;4.85;;;;;;;;;;5015446;28;20111;-79
2023/06/10 13:01:43;;;;;;;6.95;5.45;;;;;;;;;;5018554;28;20105;-78
2023/06/10 13:04:09;;;;;;;7.55;5.88;;;;;;;;;;5016799;28;20046;-77
2023/06/10 13:06:38;;;;;;;11.10;5.40;;;;;;;;;;5022414;28;20395;-77
2023/06/10 13:09:07;;;;;;;6.15;5.15;;;;;;;;;;5021312;28;20499;-78
2023/06/10 13:11:34;;;;;;;6.25;5.22;;;;;;;;;;5017392;28;20084;-77
2023/06/10 13:14:02;;;;;;;7.35;5.35;;;;;;;;;;5019992;28;20042;-78
2023/06/10 13:16:30;;;;;;;6.85;5.30;;;;;;;;;;5015204;28;20088;-78
2023/06/10 13:18:57;;;;;;;7.70;5.88;;;;;;;;;;5014911;28;20519;-78
2023/06/10 13:21:23;;;;;;;6.60;5.65;;;;;;;;;;5013908;28;20045;-78
2023/06/10 13:23:50;;;;;;;5.55;4.90;;;;;;;;;;5014652;28;20137;-78
2023/06/10 13:26:17;;;;;;;5.80;4.72;;;;;;;;;;5014994;28;20083;-77
2023/06/10 13:28:44;;;;;;;6.90;5.20;;;;;;;;;;5016050;28;20054;-78
2023/06/10 13:31:10;;;;;;;6.50;4.80;;;;;;;;;;5016003;28;20042;-77
2023/06/10 13:33:39;;;;;;;5.20;4.55;;;;;;;;;;5014564;28;20058;-79
2023/06/10 13:36:06;;;;;;;5.65;4.38;;;;;;;;;;5014367;28;20046;-77
2023/06/10 13:38:32;;;;;;;5.65;4.40;;;;;;;;;;5014144;28;20134;-78
2023/06/10 13:40:59;;;;;;;6.53;4.60;;;;;;;;;;5015073;28;20128;-80
2023/06/10 13:43:26;;;;;;;5.70;4.32;;;;;;;;;;5016068;28;20471;-78
2023/06/10 13:45:52;;;;;;;5.93;4.60;;;;;;;;;;5018461;28;20106;-78
2023/06/10 13:48:20;;;;;;;5.72;4.70;;;;;;;;;;5019801;28;20077;-78
2023/06/10 13:50:48;;;;;;;5.40;4.25;;;;;;;;;;5018019;28;20459;-79
2023/06/10 13:53:14;;;;;;;5.35;4.05;;;;;;;;;;5019126;28;20054;-78
2023/06/10 13:55:41;;;;;;;5.75;4.60;;;;;;;;;;5019925;28;20046;-79
2023/06/10 13:58:08;;;;;;;5.72;4.30;;;;;;;;;;5017529;28;20085;-79
2023/06/10 14:00:34;;;;;;;5.90;4.72;;;;;;;;;;5016350;28;20103;-79
2023/06/10 14:03:01;;;;;;;7.53;4.65;;;;;;;;;;5017843;28;20042;-80
2023/06/10 14:05:27;;;;;;;5.25;4.50;;;;;;;;;;5016279;28;20045;-80
2023/06/10 14:07:55;;;;;;;5.90;4.43;;;;;;;;;;5014719;28;20481;-78
2023/06/10 14:10:22;;;;;;;5.35;4.32;;;;;;;;;;5015865;28;20052;-79
2023/06/10 14:12:49;;;;;;;5.70;3.97;;;;;;;;;;5015528;28;20066;-79
2023/06/10 14:15:15;;;;;;;5.50;4.57;;;;;;;;;;5014772;28;20092;-79
2023/06/10 14:17:42;;;;;;;6.93;4.90;;;;;;;;;;5016849;28;20519;-80
2023/06/10 14:20:09;;;;;;;5.80;4.70;;;;;;;;;;5017160;28;20152;-80
2023/06/10 14:22:36;;;;;;;5.85;4.40;;;;;;;;;;5017754;28;20056;-80
2023/06/10 14:25:05;;;;;;;5.60;4.60;;;;;;;;;;5017873;28;20042;-80
2023/06/10 14:27:31;;;;;;;4.68;4.18;;;;;;;;;;5017572;28;20077;-80
2023/06/10 14:29:58;;;;;;;5.30;4.03;;;;;;;;;;5017384;28;20050;-80
2023/06/10 14:32:25;;;;;;;4.95;4.13;;;;;;;;;;5017582;28;20112;-81
2023/06/10 14:34:51;;;;;;;5.35;4.20;;;;;;;;;;5018129;28;20077;-81
2023/06/10 14:37:18;;;;;;;5.07;4.15;;;;;;;;;;5017449;28;20464;-80
2023/06/10 14:39:44;;;;;;;5.35;4.18;;;;;;;;;;5016872;28;20052;-81
2023/06/10 14:42:12;;;;;;;5.32;4.75;;;;;;;;;;5017250;28;20080;-79
2023/06/10 14:44:39;;;;;;;5.43;4.13;;;;;;;;;;5019952;28;20046;-79
2023/06/10 14:47:06;;;;;;;4.78;3.78;;;;;;;;;;5021032;28;20080;-80